Time;durP1;ratioP1;P1;durP2;ratioP2;P2;SDS_P1;SDS_P2;PMS_P1;PMS_P2;Temp;Humidity;BMP_temperature;BMP_pressure;BME280_temperature;BME280_humidity;BME280_pressure;Samples;Min_cycle;Max_cycle;Signal;HPM_P1;HPM_P2
2023/03/12 00:01:25;;;;;;;31.00;15.53;;;-1.30;99.90;;;;;;4934582;29;20634;-77
2023/03/12 00:03:52;;;;;;;22.33;11.80;;;-1.40;99.90;;;;;;4934423;29;20178;-77
2023/03/12 00:06:19;;;;;;;21.83;12.13;;;-1.40;99.90;;;;;;4934328;29;20285;-77
2023/03/12 00:08:46;;;;;;;18.67;11.30;;;-1.40;99.90;;;;;;4934479;29;20282;-77
2023/03/12 00:11:14;;;;;;;19.17;11.30;;;-1.40;99.90;;;;;;4935635;29;20242;-77
2023/03/12 00:13:40;;;;;;;24.73;12.47;;;-1.50;99.90;;;;;;4938013;29;20246;-77
2023/03/12 00:16:08;;;;;;;19.87;12.63;;;-1.50;99.90;;;;;;4937680;29;20198;-77
2023/03/12 00:18:33;;;;;;;21.33;12.57;;;-1.70;99.90;;;;;;4937610;29;20213;-77
2023/03/12 00:20:59;;;;;;;22.53;13.57;;;-1.70;99.90;;;;;;4938849;29;20182;-77
2023/03/12 00:23:25;;;;;;;23.07;13.93;;;-1.70;99.90;;;;;;4937856;29;20175;-77
2023/03/12 00:25:51;;;;;;;23.93;13.47;;;-1.80;99.90;;;;;;4938635;29;20182;-77
2023/03/12 00:28:16;;;;;;;19.40;12.37;;;-1.80;99.90;;;;;;4937533;29;20186;-77
2023/03/12 00:30:42;;;;;;;20.47;12.23;;;-1.70;99.90;;;;;;4937440;29;20181;-77
2023/03/12 00:33:09;;;;;;;19.50;12.40;;;-1.60;99.90;;;;;;4938647;29;20174;-77
2023/03/12 00:35:37;;;;;;;17.27;9.77;;;-1.60;99.90;;;;;;4938146;29;20186;-77
2023/03/12 00:38:03;;;;;;;17.30;10.07;;;-1.70;99.90;;;;;;4938279;29;20257;-77
2023/03/12 00:40:29;;;;;;;14.57;8.70;;;-1.60;99.90;;;;;;4937288;29;20222;-77
2023/03/12 00:42:54;;;;;;;12.40;9.10;;;-1.50;99.90;;;;;;4938452;29;20253;-77
2023/03/12 00:45:20;;;;;;;15.53;10.00;;;-1.40;99.90;;;;;;4937183;29;20257;-77
2023/03/12 00:47:45;;;;;;;16.00;10.93;;;-1.30;99.90;;;;;;4937592;29;20269;-77
2023/03/12 00:50:11;;;;;;;13.67;8.97;;;-1.30;99.90;;;;;;4937405;29;20178;-77
2023/03/12 00:52:36;;;;;;;13.63;8.37;;;-1.30;99.90;;;;;;4937101;29;20181;-77
2023/03/12 00:55:02;;;;;;;30.67;14.37;;;-1.40;99.90;;;;;;4937059;29;20265;-77
2023/03/12 00:57:27;;;;;;;40.43;18.83;;;-1.40;99.90;;;;;;4937436;29;20202;-77
2023/03/12 00:59:53;;;;;;;32.63;14.73;;;-1.50;99.90;;;;;;4936775;29;20218;-77
2023/03/12 01:02:19;;;;;;;22.03;12.00;;;-1.50;99.90;;;;;;4937189;29;20182;-77
2023/03/12 01:04:44;;;;;;;26.07;12.70;;;-1.50;99.90;;;;;;4938356;29;20182;-77
2023/03/12 01:07:10;;;;;;;27.47;13.90;;;-1.40;99.90;;;;;;4937329;29;20685;-77
2023/03/12 01:09:36;;;;;;;29.90;15.33;;;-1.50;99.90;;;;;;4937192;29;20186;-77
2023/03/12 01:12:01;;;;;;;14.40;8.23;;;-1.40;99.90;;;;;;4937031;29;20182;-77
2023/03/12 01:14:27;;;;;;;13.00;8.40;;;-1.40;99.90;;;;;;4936622;29;20244;-77
2023/03/12 01:16:52;;;;;;;11.33;7.73;;;-1.30;99.90;;;;;;4936599;29;20213;-77
2023/03/12 01:19:18;;;;;;;13.10;7.90;;;-1.30;99.90;;;;;;4936432;29;20210;-77
2023/03/12 01:21:43;;;;;;;12.90;7.43;;;-1.40;99.90;;;;;;4936824;29;20190;-77
2023/03/12 01:24:09;;;;;;;14.50;8.13;;;-1.40;99.90;;;;;;4936369;29;20187;-77
2023/03/12 01:26:35;;;;;;;11.30;7.80;;;-1.30;99.90;;;;;;4937160;29;20226;-77
2023/03/12 01:29:00;;;;;;;15.77;9.47;;;-1.20;99.90;;;;;;4937624;29;20202;-77
2023/03/12 01:31:26;;;;;;;12.30;8.83;;;-1.30;99.90;;;;;;4936400;29;20194;-77
2023/03/12 01:33:52;;;;;;;15.10;9.23;;;-1.30;99.90;;;;;;4936286;29;20198;-77
2023/03/12 01:36:25;;;;;;;13.77;8.20;;;-1.30;99.90;;;;;;4936179;29;20289;-77
2023/03/12 01:38:56;;;;;;;13.70;8.37;;;-1.40;99.90;;;;;;4936571;29;20194;-77
2023/03/12 01:41:23;;;;;;;13.37;8.13;;;-1.30;99.90;;;;;;4937666;29;20167;-77
2023/03/12 01:43:49;;;;;;;20.30;10.27;;;-1.30;99.90;;;;;;4936095;29;20273;-77
2023/03/12 01:46:22;;;;;;;22.00;11.17;;;-1.30;99.90;;;;;;4937446;29;20257;-77
2023/03/12 01:48:53;;;;;;;13.90;8.30;;;-1.30;99.90;;;;;;4936954;29;20178;-77
2023/03/12 01:51:20;;;;;;;14.10;9.00;;;-1.30;99.90;;;;;;4936174;29;20194;-77
2023/03/12 01:53:49;;;;;;;16.23;8.67;;;-1.30;99.90;;;;;;4936962;29;20186;-77
2023/03/12 01:56:17;;;;;;;12.20;8.20;;;-1.30;99.90;;;;;;4936103;29;20300;-77
2023/03/12 01:58:51;;;;;;;14.03;7.63;;;-1.30;99.90;;;;;;4936261;29;20264;-77
2023/03/12 04:38:48;;;;;;;7.37;5.57;;;-0.70;99.90;;;;;;5900928;23;20201;-77
2023/03/12 04:41:15;;;;;;;8.77;6.17;;;-0.80;99.90;;;;;;4938502;29;20175;-77
2023/03/12 04:43:41;;;;;;;8.27;5.60;;;-0.80;99.90;;;;;;4937396;29;20182;-77
2023/03/12 04:46:07;;;;;;;12.50;6.50;;;-0.90;99.90;;;;;;4937465;29;20578;-77
2023/03/12 04:48:33;;;;;;;12.20;6.20;;;-1.00;99.90;;;;;;4938007;29;20194;-77
2023/03/12 04:50:59;;;;;;;7.77;5.40;;;-0.90;99.90;;;;;;4937728;29;20190;-77
2023/03/12 04:53:25;;;;;;;9.47;5.97;;;-0.70;99.90;;;;;;4937167;29;20540;-77
2023/03/12 04:55:51;;;;;;;9.53;6.50;;;-0.70;99.90;;;;;;4937046;29;20210;-77
2023/03/12 04:58:17;;;;;;;9.70;6.57;;;-0.70;99.90;;;;;;4937634;29;20210;-77
2023/03/12 05:00:44;;;;;;;9.07;5.70;;;-0.70;99.90;;;;;;4936903;29;20182;-77
2023/03/12 05:03:09;;;;;;;8.97;5.87;;;-0.80;99.90;;;;;;4936881;29;20600;-77
2023/03/12 05:05:35;;;;;;;7.27;5.73;;;-0.90;99.90;;;;;;4938406;29;20179;-77
2023/03/12 05:08:02;;;;;;;6.53;5.53;;;-0.90;99.90;;;;;;4938088;29;20174;-77
2023/03/12 05:10:27;;;;;;;7.40;5.60;;;-0.80;99.90;;;;;;4937988;29;20242;-77
2023/03/12 05:12:53;;;;;;;8.70;6.00;;;-0.70;99.90;;;;;;4938228;29;20217;-77
2023/03/12 05:15:19;;;;;;;7.50;6.00;;;-0.60;99.90;;;;;;4936745;29;20625;-77
2023/03/12 05:17:44;;;;;;;10.13;6.50;;;-0.50;99.90;;;;;;4936612;29;20198;-77
2023/03/12 05:20:11;;;;;;;8.47;5.70;;;-0.40;99.90;;;;;;4936574;29;20206;-77
2023/03/12 05:22:37;;;;;;;7.20;5.40;;;-0.50;99.90;;;;;;4936461;29;20189;-77
2023/03/12 05:25:03;;;;;;;8.13;5.53;;;-0.50;99.90;;;;;;4936534;29;20190;-77
2023/03/12 05:27:29;;;;;;;10.20;6.33;;;-0.50;99.90;;;;;;4936629;29;20350;-77
2023/03/12 05:29:54;;;;;;;11.47;5.90;;;-0.50;99.90;;;;;;4938169;29;20269;-77
2023/03/12 05:32:20;;;;;;;8.07;5.47;;;-0.40;99.90;;;;;;4937449;29;20237;-77
2023/03/12 05:34:45;;;;;;;7.70;5.70;;;-0.40;99.90;;;;;;4936391;29;20186;-77
2023/03/12 05:37:11;;;;;;;8.43;6.00;;;-0.50;99.90;;;;;;4936229;29;20289;-77
2023/03/12 05:39:37;;;;;;;8.33;5.67;;;-0.50;99.90;;;;;;4936150;29;20254;-77
2023/03/12 05:42:03;;;;;;;7.00;5.93;;;-0.40;99.90;;;;;;4937600;29;20190;-77
2023/03/12 05:44:29;;;;;;;9.40;6.00;;;-0.30;99.90;;;;;;4937640;29;20201;-77
2023/03/12 05:46:55;;;;;;;10.43;5.70;;;-0.20;99.90;;;;;;4937280;29;20320;-77
2023/03/12 05:49:21;;;;;;;10.40;5.57;;;-0.20;99.90;;;;;;4937273;29;20524;-77
2023/03/12 05:51:47;;;;;;;7.03;5.40;;;-0.10;99.90;;;;;;4936323;29;20241;-77
2023/03/12 05:54:15;;;;;;;7.57;5.80;;;-0.10;99.90;;;;;;4936292;29;20182;-77
2023/03/12 05:56:41;;;;;;;8.00;5.70;;;-0.10;99.90;;;;;;4935870;29;20229;-77
2023/03/12 05:59:06;;;;;;;7.23;5.80;;;0.00;99.90;;;;;;4935821;29;20201;-77
2023/03/12 06:01:32;;;;;;;6.67;5.83;;;-0.20;99.90;;;;;;4935831;29;20213;-77
2023/03/12 06:03:58;;;;;;;9.03;6.50;;;-0.20;99.90;;;;;;4936186;29;20178;-77
2023/03/12 06:06:23;;;;;;;9.17;6.17;;;-0.20;99.90;;;;;;4936902;29;20244;-77
2023/03/12 06:08:50;;;;;;;8.60;6.27;;;-0.10;99.90;;;;;;4936730;29;20191;-77
2023/03/12 06:11:16;;;;;;;7.07;5.87;;;0.00;99.90;;;;;;4936643;29;20182;-77
2023/03/12 06:13:41;;;;;;;7.67;5.90;;;0.00;99.90;;;;;;4935996;29;20192;-77
2023/03/12 06:16:07;;;;;;;7.50;6.07;;;0.00;99.90;;;;;;4935595;29;20198;-77
2023/03/12 06:18:34;;;;;;;8.83;6.47;;;-0.20;99.90;;;;;;4935446;29;20202;-77
2023/03/12 06:21:16;;;;;;;8.67;6.47;;;-0.30;99.90;;;;;;4935535;29;20206;-77
2023/03/12 06:23:43;;;;;;;7.13;5.60;;;-0.50;99.90;;;;;;4935983;29;20182;-77
2023/03/12 06:26:10;;;;;;;7.93;5.50;;;-0.40;99.90;;;;;;4936618;29;20202;-77
2023/03/12 06:28:36;;;;;;;9.80;5.07;;;-0.20;99.90;;;;;;4935373;29;20272;-77
2023/03/12 06:31:02;;;;;;;12.87;7.50;;;-0.10;99.90;;;;;;4936190;29;20178;-77
2023/03/12 06:33:28;;;;;;;9.97;7.90;;;0.00;99.90;;;;;;4935591;29;20189;-77
2023/03/12 06:35:59;;;;;;;72.07;48.70;;;0.10;99.90;;;;;;4935900;29;20198;-77
2023/03/12 06:38:25;;;;;;;15.43;11.30;;;0.10;99.90;;;;;;4937240;29;20194;-77
2023/03/12 06:40:59;;;;;;;19.73;14.23;;;0.20;99.90;;;;;;4938106;29;20205;-78
2023/03/12 06:43:26;;;;;;;53.57;40.30;;;0.40;99.90;;;;;;4943049;29;20197;-78
2023/03/12 06:45:54;;;;;;;23.40;18.30;;;0.50;99.90;;;;;;4944175;29;20198;-78
2023/03/12 06:48:20;;;;;;;22.80;15.07;;;0.60;99.90;;;;;;4944511;29;20646;-79
2023/03/12 06:50:45;;;;;;;13.57;10.10;;;0.70;99.90;;;;;;4944618;29;20197;-79
2023/03/12 06:53:11;;;;;;;7.90;7.10;;;0.80;99.90;;;;;;4944348;29;20197;-79
2023/03/12 06:55:37;;;;;;;10.03;6.57;;;0.70;99.90;;;;;;4944212;29;20190;-78
2023/03/12 06:58:03;;;;;;;8.63;5.77;;;0.90;99.90;;;;;;4944805;29;20288;-78
2023/03/12 07:00:29;;;;;;;9.43;5.67;;;0.90;99.90;;;;;;4946211;29;20206;-78
2023/03/12 07:02:55;;;;;;;10.53;5.63;;;1.00;99.90;;;;;;4944959;29;20186;-79
2023/03/12 07:05:22;;;;;;;13.67;7.73;;;1.10;99.90;;;;;;4945031;29;20175;-79
2023/03/12 07:07:47;;;;;;;6.63;5.97;;;1.10;99.90;;;;;;4945160;29;20198;-79
2023/03/12 07:10:13;;;;;;;8.97;6.47;;;1.20;99.90;;;;;;4945250;29;20182;-79
2023/03/12 07:12:38;;;;;;;7.30;5.93;;;1.30;99.90;;;;;;4944923;29;20182;-79
2023/03/12 07:15:05;;;;;;;8.87;5.80;;;1.40;99.90;;;;;;4939171;29;20182;-77
2023/03/12 07:17:30;;;;;;;7.00;5.20;;;1.50;99.90;;;;;;4935053;29;20210;-77
2023/03/12 07:19:56;;;;;;;6.97;5.70;;;1.50;99.90;;;;;;4936028;29;20205;-78
2023/03/12 07:22:21;;;;;;;10.23;5.93;;;1.60;99.90;;;;;;4938837;29;20370;-78
2023/03/12 07:24:47;;;;;;;10.97;7.93;;;1.50;99.90;;;;;;4939047;29;20174;-78
2023/03/12 07:27:12;;;;;;;7.87;6.10;;;1.50;99.90;;;;;;4938522;29;20229;-78
2023/03/12 07:29:38;;;;;;;7.33;5.60;;;1.10;99.90;;;;;;4938979;29;20190;-77
2023/03/12 07:32:04;;;;;;;10.43;6.87;;;1.00;99.90;;;;;;4938109;29;20182;-78
2023/03/12 07:34:30;;;;;;;11.63;8.07;;;1.10;99.90;;;;;;4937564;29;20243;-78
2023/03/12 07:36:55;;;;;;;10.03;5.83;;;1.30;99.90;;;;;;4936852;29;20276;-78
2023/03/12 07:39:21;;;;;;;8.47;6.27;;;1.60;99.90;;;;;;4937846;29;20261;-78
2023/03/12 07:41:46;;;;;;;12.07;6.80;;;2.10;99.90;;;;;;4938610;29;20179;-78
2023/03/12 07:44:12;;;;;;;8.63;5.83;;;2.40;99.90;;;;;;4937345;29;20190;-78
2023/03/12 07:46:38;;;;;;;8.63;5.07;;;2.70;99.90;;;;;;4937970;29;20205;-78
2023/03/12 07:49:03;;;;;;;10.40;5.80;;;2.90;99.90;;;;;;4939729;29;20202;-78
2023/03/12 07:51:29;;;;;;;7.13;4.60;;;2.80;99.90;;;;;;4938352;29;20186;-78
2023/03/12 07:53:55;;;;;;;6.53;4.60;;;2.80;99.90;;;;;;4938142;29;20192;-78
2023/03/12 07:56:21;;;;;;;7.43;4.80;;;2.90;99.90;;;;;;4939547;29;20289;-78
2023/03/12 07:58:47;;;;;;;7.40;5.23;;;2.90;99.90;;;;;;4938902;29;20210;-78
2023/03/12 08:01:13;;;;;;;11.80;5.40;;;2.90;99.90;;;;;;4939891;29;20194;-78
2023/03/12 08:03:38;;;;;;;5.60;5.07;;;2.90;99.90;;;;;;4937997;29;20182;-78
2023/03/12 08:06:05;;;;;;;8.17;5.50;;;2.80;99.90;;;;;;4938306;29;20203;-78
2023/03/12 08:08:31;;;;;;;8.73;5.17;;;2.90;99.90;;;;;;4938079;29;20186;-78
2023/03/12 08:10:58;;;;;;;6.93;5.13;;;3.00;99.90;;;;;;4937887;29;20189;-78
2023/03/12 08:13:24;;;;;;;6.40;4.53;;;3.10;99.90;;;;;;4938000;29;20210;-78
2023/03/12 08:15:51;;;;;;;5.13;4.60;;;3.20;99.90;;;;;;4938248;29;20211;-78
2023/03/12 08:18:18;;;;;;;7.30;5.30;;;3.30;99.90;;;;;;4937789;29;20225;-78
2023/03/12 08:20:44;;;;;;;5.90;5.10;;;3.20;99.90;;;;;;4938949;29;20183;-78
2023/03/12 08:23:10;;;;;;;7.10;5.03;;;3.30;99.90;;;;;;4937720;29;20205;-78
2023/03/12 08:25:36;;;;;;;7.87;4.90;;;3.50;99.90;;;;;;4937924;29;20186;-78
2023/03/12 08:28:03;;;;;;;6.07;5.20;;;3.50;99.90;;;;;;4937623;29;20209;-78
2023/03/12 08:30:30;;;;;;;7.13;5.87;;;3.60;99.90;;;;;;4938042;29;20190;-78
2023/03/12 08:32:56;;;;;;;7.43;6.10;;;3.70;99.90;;;;;;4938045;29;20178;-78
2023/03/12 08:35:22;;;;;;;8.57;6.40;;;3.60;99.90;;;;;;4937527;29;20304;-78
2023/03/12 08:37:47;;;;;;;8.53;5.57;;;3.60;99.90;;;;;;4938216;29;20221;-78
2023/03/12 08:40:13;;;;;;;8.13;5.97;;;3.40;99.90;;;;;;4938431;29;20206;-78
2023/03/12 08:42:43;;;;;;;10.47;5.60;;;3.20;99.90;;;;;;4938861;29;20270;-78
2023/03/12 08:45:10;;;;;;;5.47;4.93;;;3.40;99.90;;;;;;4937383;29;20194;-78
2023/03/12 08:47:40;;;;;;;5.77;4.50;;;3.40;99.90;;;;;;4938329;29;20253;-78
2023/03/12 08:50:07;;;;;;;7.43;4.63;;;3.50;99.90;;;;;;4938047;29;20190;-78
2023/03/12 08:52:32;;;;;;;5.43;4.53;;;3.70;99.90;;;;;;4938251;29;20194;-78
2023/03/12 08:54:58;;;;;;;8.83;5.20;;;3.80;99.90;;;;;;4938332;29;20293;-78
2023/03/12 08:57:23;;;;;;;6.93;4.80;;;3.80;99.90;;;;;;4937928;29;20218;-77
2023/03/12 08:59:49;;;;;;;6.30;4.17;;;3.90;99.90;;;;;;4937024;29;20202;-77
2023/03/12 09:02:14;;;;;;;7.13;4.37;;;4.00;99.90;;;;;;4938419;29;20197;-77
2023/03/12 09:04:40;;;;;;;6.53;4.33;;;3.90;99.90;;;;;;4938088;29;20178;-77
2023/03/12 09:07:05;;;;;;;6.17;4.40;;;4.10;99.30;;;;;;4937976;29;20206;-77
2023/03/12 09:09:31;;;;;;;7.17;4.53;;;4.20;99.10;;;;;;4938324;29;20256;-77
2023/03/12 09:11:57;;;;;;;5.03;4.40;;;4.40;99.40;;;;;;4936965;29;20215;-77
2023/03/12 09:14:22;;;;;;;6.60;4.67;;;4.30;98.90;;;;;;4937264;29;20190;-77
2023/03/12 09:16:48;;;;;;;5.97;4.60;;;4.30;99.20;;;;;;4936675;29;20222;-77
2023/03/12 09:19:14;;;;;;;6.70;4.10;;;4.10;99.30;;;;;;4938048;29;20216;-77
2023/03/12 09:21:40;;;;;;;6.13;4.23;;;4.20;99.30;;;;;;4936590;29;20273;-77
2023/03/12 09:24:06;;;;;;;7.63;4.57;;;4.30;99.30;;;;;;4936877;29;20213;-77
2023/03/12 09:26:32;;;;;;;8.67;5.50;;;4.40;99.40;;;;;;4936486;29;20202;-77
2023/03/12 09:28:58;;;;;;;7.00;4.43;;;4.60;99.30;;;;;;4936766;29;20214;-77
2023/03/12 09:31:24;;;;;;;7.10;4.40;;;4.90;99.30;;;;;;4937513;29;20265;-75
2023/03/12 09:33:51;;;;;;;7.43;4.33;;;5.10;98.60;;;;;;4936377;29;20186;-75
2023/03/12 09:36:17;;;;;;;6.23;4.60;;;5.20;98.10;;;;;;4936590;29;20220;-75
2023/03/12 09:38:43;;;;;;;8.30;4.37;;;5.40;97.80;;;;;;4936082;29;20206;-75
2023/03/12 09:41:22;;;;;;;6.40;4.10;;;5.50;97.60;;;;;;4936733;29;20186;-75
2023/03/12 09:44:01;;;;;;;6.07;4.73;;;5.60;97.30;;;;;;4937092;29;20175;-75
2023/03/12 09:46:52;;;;;;;8.60;4.50;;;5.80;97.50;;;;;;4937014;29;20213;-75
2023/03/12 09:50:00;;;;;;;7.43;4.30;;;5.80;97.00;;;;;;4936856;29;20194;-75
2023/03/12 09:52:50;;;;;;;4.90;4.37;;;5.90;97.10;;;;;;4909523;29;20194;-75
2023/03/12 09:55:20;;;;;;;5.00;4.10;;;5.70;96.90;;;;;;4936853;29;20178;-75
2023/03/12 09:57:49;;;;;;;4.95;3.88;;;5.70;96.90;;;;;;4935905;29;20210;-75
2023/03/12 10:00:17;;;;;;;8.30;3.83;;;5.80;96.40;;;;;;4937018;29;20198;-75
2023/03/12 10:03:08;;;;;;;5.13;3.90;;;5.80;96.50;;;;;;4936385;29;20183;-75
2023/03/12 10:05:55;;;;;;;9.13;3.77;;;5.80;96.70;;;;;;4937250;29;20173;-75
2023/03/12 10:08:35;;;;;;;5.77;4.00;;;5.70;96.50;;;;;;4936409;29;20216;-75
2023/03/12 10:11:10;;;;;;;8.83;4.30;;;5.80;97.10;;;;;;4935809;29;20186;-75
2023/03/12 10:13:51;;;;;;;5.28;3.70;;;5.90;97.10;;;;;;4936689;29;20181;-75
2023/03/12 10:16:17;;;;;;;8.45;3.80;;;6.00;96.00;;;;;;4935754;29;20210;-75
2023/03/12 10:18:46;;;;;;;6.50;3.45;;;6.10;96.00;;;;;;4935588;29;20218;-75
2023/03/12 10:21:36;;;;;;;6.75;3.70;;;6.30;96.20;;;;;;4935588;29;20645;-75
2023/03/12 10:24:04;;;;;;;6.78;3.65;;;6.50;95.60;;;;;;4935715;29;20234;-77
2023/03/12 10:26:41;;;;;;;5.82;3.83;;;6.60;94.90;;;;;;4935810;29;20229;-75
2023/03/12 10:29:39;;;;;;;6.03;3.65;;;6.70;95.10;;;;;;4938960;29;20182;-75
2023/03/12 10:32:22;;;;;;;5.57;4.07;;;6.80;94.80;;;;;;4936914;29;20190;-75
2023/03/12 10:35:01;;;;;;;8.63;4.28;;;6.70;94.60;;;;;;4938904;29;20257;-76
2023/03/12 10:37:37;;;;;;;8.38;4.00;;;6.60;94.50;;;;;;4936036;29;20229;-76
2023/03/12 10:40:07;;;;;;;7.05;4.20;;;6.50;95.60;;;;;;4937216;29;20222;-76
2023/03/12 10:42:33;;;;;;;5.63;3.50;;;6.30;94.90;;;;;;4937819;29;20184;-76
2023/03/12 10:45:08;;;;;;;4.32;3.50;;;6.30;95.30;;;;;;4938534;29;20174;-77
2023/03/12 10:47:42;;;;;;;10.68;4.03;;;6.00;95.40;;;;;;4943318;29;20210;-76
2023/03/12 10:50:26;;;;;;;6.07;4.65;;;5.90;96.10;;;;;;4939233;29;20233;-76
2023/03/12 10:53:11;;;;;;;7.97;4.15;;;5.90;96.40;;;;;;4942529;29;20178;-76
2023/03/12 10:55:37;;;;;;;7.05;3.80;;;5.90;96.60;;;;;;4943484;29;20163;-77
2023/03/12 10:58:03;;;;;;;8.00;3.80;;;5.90;96.70;;;;;;4946040;29;20277;-78
2023/03/12 11:00:33;;;;;;;7.28;4.10;;;6.00;97.40;;;;;;4941137;29;20296;-78
2023/03/12 11:03:03;;;;;;;6.78;4.20;;;5.90;98.00;;;;;;4935042;29;20178;-78
2023/03/12 11:05:54;;;;;;;8.73;4.35;;;5.80;98.40;;;;;;4935612;29;20186;-77
2023/03/12 11:08:36;;;;;;;7.10;4.22;;;5.70;98.70;;;;;;4932924;29;20234;-77
2023/03/12 11:11:03;;;;;;;9.43;4.65;;;5.50;99.80;;;;;;4934783;29;20166;-77
2023/03/12 11:13:38;;;;;;;9.70;4.27;;;5.30;99.90;;;;;;4933267;29;20190;-77
2023/03/12 11:16:15;;;;;;;8.37;4.13;;;5.20;99.90;;;;;;4933854;29;20574;-77
2023/03/12 11:19:00;;;;;;;8.30;4.07;;;5.10;99.90;;;;;;4933059;29;20249;-77
2023/03/12 11:21:27;;;;;;;8.63;4.23;;;5.00;99.90;;;;;;4933893;29;20185;-77
2023/03/12 11:23:55;;;;;;;7.87;4.50;;;4.80;99.90;;;;;;4933979;29;20251;-77
2023/03/12 11:26:48;;;;;;;9.77;4.10;;;4.80;99.90;;;;;;4934743;29;20190;-77
2023/03/12 11:29:28;;;;;;;13.40;4.67;;;4.80;99.90;;;;;;4933000;29;20194;-77
2023/03/12 11:31:57;;;;;;;9.30;6.70;;;4.70;99.90;;;;;;4935053;29;20252;-77
2023/03/12 11:34:36;;;;;;;12.23;6.93;;;4.70;99.90;;;;;;4934752;29;20185;-77
2023/03/12 11:37:32;;;;;;;13.67;11.10;;;4.60;99.90;;;;;;4935971;29;20209;-77
2023/03/12 11:40:11;;;;;;;11.37;9.67;;;4.60;99.90;;;;;;4934614;29;20246;-77
2023/03/12 11:43:14;;;;;;;15.83;9.70;;;4.60;99.90;;;;;;4934734;29;20182;-77
2023/03/12 11:45:49;;;;;;;20.57;10.83;;;4.60;99.90;;;;;;4936064;29;20180;-77
2023/03/12 11:48:22;;;;;;;19.93;12.80;;;4.60;99.90;;;;;;4935548;29;20213;-77
2023/03/12 11:51:16;;;;;;;16.60;8.80;;;4.60;99.90;;;;;;4935466;29;20210;-77
2023/03/12 11:53:48;;;;;;;13.10;6.17;;;4.60;99.90;;;;;;4936627;29;20166;-77
2023/03/12 11:56:27;;;;;;;13.03;7.63;;;4.60;99.90;;;;;;4936264;29;20689;-77
2023/03/12 11:59:09;;;;;;;13.80;7.00;;;4.60;99.90;;;;;;4936074;29;20202;-77
2023/03/12 12:02:23;;;;;;;13.77;7.87;;;4.60;99.90;;;;;;4934721;29;20178;-77
2023/03/12 12:05:01;;;;;;;10.70;7.57;;;4.60;99.90;;;;;;4912333;29;20194;-76
2023/03/12 12:07:59;;;;;;;10.47;7.77;;;4.60;99.90;;;;;;4932729;29;20198;-76
2023/03/12 12:10:37;;;;;;;9.17;7.07;;;4.60;99.90;;;;;;4936845;29;20198;-76
2023/03/12 12:13:02;;;;;;;9.07;7.57;;;4.50;99.90;;;;;;4936032;29;20217;-77
2023/03/12 12:15:37;;;;;;;12.93;8.80;;;4.50;99.90;;;;;;4937686;29;20266;-76
2023/03/12 12:18:39;;;;;;;10.93;9.77;;;4.50;99.90;;;;;;4938549;29;20310;-77
2023/03/12 12:21:35;;;;;;;10.63;7.80;;;4.50;99.90;;;;;;4937664;29;20182;-77
2023/03/12 12:24:27;;;;;;;9.93;7.67;;;4.40;99.90;;;;;;4937921;29;20265;-77
2023/03/12 12:27:13;;;;;;;12.47;7.77;;;4.50;99.90;;;;;;4929917;29;20226;-77
2023/03/12 12:30:00;;;;;;;8.37;7.57;;;4.50;99.90;;;;;;4939306;29;20167;-77
2023/03/12 12:32:56;;;;;;;9.47;7.37;;;4.50;99.90;;;;;;4937491;29;20170;-77
2023/03/12 12:35:40;;;;;;;8.83;7.07;;;4.40;99.90;;;;;;4937913;29;20209;-77
2023/03/12 12:38:15;;;;;;;9.93;7.03;;;4.60;99.90;;;;;;4938553;29;20175;-77
2023/03/12 12:40:48;;;;;;;9.43;6.87;;;4.50;99.90;;;;;;4938583;29;20193;-77
2023/03/12 12:43:31;;;;;;;7.70;6.53;;;4.50;99.90;;;;;;4938849;29;20238;-77
2023/03/12 12:46:21;;;;;;;8.77;6.57;;;4.60;99.90;;;;;;4938249;29;20208;-77
2023/03/12 12:49:01;;;;;;;8.13;6.70;;;4.60;99.90;;;;;;4937242;29;20233;-77
2023/03/12 12:51:35;;;;;;;8.60;7.80;;;4.60;99.90;;;;;;4937288;29;20177;-77
2023/03/12 12:54:04;;;;;;;8.10;7.30;;;4.40;99.90;;;;;;4937154;29;20557;-77
2023/03/12 12:56:57;;;;;;;10.03;6.97;;;4.40;99.90;;;;;;4937956;29;20202;-77
2023/03/12 12:59:34;;;;;;;9.13;7.60;;;4.40;99.90;;;;;;4937294;29;20210;-77
2023/03/12 13:02:03;;;;;;;8.57;7.37;;;4.30;99.90;;;;;;4937616;29;20228;-77
2023/03/12 13:04:38;;;;;;;7.63;6.93;;;4.40;99.90;;;;;;4937681;29;20178;-77
2023/03/12 13:07:12;;;;;;;7.63;6.83;;;4.50;99.90;;;;;;4936967;29;20198;-77
2023/03/12 13:09:52;;;;;;;7.67;6.77;;;4.60;99.90;;;;;;4938165;29;20204;-77
2023/03/12 13:12:29;;;;;;;8.67;7.10;;;4.70;99.90;;;;;;4937977;29;20167;-78
2023/03/12 13:14:56;;;;;;;8.57;7.63;;;4.80;99.90;;;;;;4937653;29;20186;-77
2023/03/12 13:17:33;;;;;;;8.43;7.17;;;4.90;99.90;;;;;;4936679;29;20194;-77
2023/03/12 13:20:21;;;;;;;11.13;7.65;;;4.90;99.90;;;;;;4937110;29;20333;-76
2023/03/12 13:23:22;;;;;;;9.23;6.83;;;5.00;99.90;;;;;;4936815;29;20170;-76
2023/03/12 13:26:07;;;;;;;7.93;7.23;;;5.00;99.90;;;;;;4927472;29;20202;-76
2023/03/12 13:28:51;;;;;;;8.03;7.23;;;5.00;99.90;;;;;;4937224;29;20174;-76
2023/03/12 13:31:23;;;;;;;7.45;6.75;;;5.10;99.90;;;;;;4936294;29;20233;-76
2023/03/12 13:33:57;;;;;;;7.90;6.82;;;5.30;99.90;;;;;;4936337;29;20182;-76
2023/03/12 13:36:27;;;;;;;10.55;7.32;;;5.30;99.90;;;;;;4937499;29;20285;-76
2023/03/12 13:39:00;;;;;;;9.10;7.47;;;5.40;99.90;;;;;;4937199;29;20237;-76
2023/03/12 13:41:32;;;;;;;8.25;7.35;;;5.30;99.90;;;;;;4936256;29;20270;-76
2023/03/12 13:43:58;;;;;;;8.38;7.57;;;5.40;99.90;;;;;;4936175;29;20178;-76
2023/03/12 13:46:38;;;;;;;7.85;7.13;;;5.50;99.90;;;;;;4936662;29;20254;-76
2023/03/12 13:49:10;;;;;;;8.25;6.45;;;5.40;99.90;;;;;;4937106;29;20233;-76
2023/03/12 13:51:43;;;;;;;8.38;6.88;;;5.50;99.90;;;;;;4936156;29;20182;-77
2023/03/12 13:54:19;;;;;;;9.95;6.53;;;5.40;99.90;;;;;;4936140;29;20206;-77
2023/03/12 13:57:02;;;;;;;10.57;7.55;;;5.40;99.90;;;;;;4936308;29;20209;-77
2023/03/12 13:59:29;;;;;;;7.45;6.75;;;5.30;99.90;;;;;;4935899;29;20257;-77
2023/03/12 14:02:02;;;;;;;7.18;6.40;;;5.40;99.90;;;;;;4936733;29;20209;-77
2023/03/12 14:04:39;;;;;;;7.18;6.40;;;5.30;99.90;;;;;;4936503;29;20171;-78
2023/03/12 14:07:38;;;;;;;7.35;6.65;;;5.30;99.90;;;;;;4936769;29;20208;-77
2023/03/12 14:10:08;;;;;;;97.10;55.05;;;5.40;99.90;;;;;;4936991;29;20210;-77
2023/03/12 14:13:02;;;;;;;374.52;177.80;;;5.50;99.90;;;;;;4935625;29;20178;-77
2023/03/12 14:15:38;;;;;;;301.80;144.10;;;5.60;99.90;;;;;;4937194;29;20183;-77
2023/03/12 14:18:14;;;;;;;158.40;81.10;;;5.90;99.90;;;;;;4935815;29;20185;-77
2023/03/12 14:20:40;;;;;;;324.75;164.48;;;5.90;99.90;;;;;;4937199;29;20205;-77
2023/03/12 14:23:12;;;;;;;116.50;67.35;;;5.90;99.90;;;;;;4936975;29;20205;-77
2023/03/12 14:25:47;;;;;;;22.17;17.38;;;5.90;99.90;;;;;;4935732;29;20178;-78
2023/03/12 14:28:18;;;;;;;11.45;10.30;;;5.80;99.90;;;;;;4936366;29;20194;-77
2023/03/12 14:31:00;;;;;;;6.95;6.22;;;5.80;99.90;;;;;;4934965;29;20630;-77
2023/03/12 14:33:32;;;;;;;6.55;5.95;;;5.80;99.90;;;;;;4935432;29;20178;-77
2023/03/12 14:36:06;;;;;;;6.53;5.93;;;5.70;99.90;;;;;;4935742;29;20209;-77
2023/03/12 14:38:38;;;;;;;6.50;5.18;;;5.70;99.90;;;;;;4935883;29;20174;-77
2023/03/12 14:41:30;;;;;;;6.32;5.80;;;5.60;99.90;;;;;;4936196;29;20221;-77
2023/03/12 14:44:25;;;;;;;6.32;5.78;;;5.50;99.90;;;;;;4936125;29;20178;-77
2023/03/12 14:46:59;;;;;;;6.65;6.05;;;5.40;99.90;;;;;;4935259;29;20194;-77
2023/03/12 14:49:26;;;;;;;7.22;6.20;;;5.40;99.90;;;;;;4936736;29;20170;-77
2023/03/12 14:51:54;;;;;;;7.97;6.33;;;5.40;99.90;;;;;;4936236;29;20297;-77
2023/03/12 14:54:23;;;;;;;7.22;6.60;;;5.30;99.90;;;;;;4936080;29;20182;-78
2023/03/12 14:56:49;;;;;;;8.68;7.00;;;5.30;99.90;;;;;;4935025;29;20208;-78
2023/03/12 14:59:37;;;;;;;8.65;6.60;;;5.20;99.90;;;;;;4935231;29;20273;-78
2023/03/12 15:02:12;;;;;;;8.80;6.75;;;5.30;99.90;;;;;;4936353;29;20182;-78
2023/03/12 15:04:38;;;;;;;7.38;6.78;;;5.40;99.90;;;;;;4935384;29;20180;-78
2023/03/12 15:07:08;;;;;;;7.70;6.90;;;5.50;99.90;;;;;;4935200;29;20206;-78
2023/03/12 15:09:35;;;;;;;7.63;6.88;;;5.50;99.90;;;;;;4933643;29;20174;-77
2023/03/12 15:12:03;;;;;;;8.15;7.05;;;5.50;99.90;;;;;;4934780;29;20182;-77
2023/03/12 15:14:37;;;;;;;7.72;7.03;;;5.40;99.90;;;;;;4933499;29;20214;-77
2023/03/12 15:17:05;;;;;;;13.57;12.25;;;5.50;99.90;;;;;;4933329;29;20732;-77
2023/03/12 15:19:34;;;;;;;11.57;10.40;;;5.40;99.90;;;;;;4933684;29;20237;-77
2023/03/12 15:22:01;;;;;;;9.57;8.63;;;5.40;99.90;;;;;;4934503;29;20294;-77
2023/03/12 15:24:29;;;;;;;10.38;7.88;;;5.40;99.90;;;;;;4935816;29;20169;-77
2023/03/12 15:26:54;;;;;;;8.48;7.53;;;5.50;99.90;;;;;;4936945;29;20681;-77
2023/03/12 15:29:29;;;;;;;8.73;7.93;;;5.50;99.90;;;;;;4936372;29;20269;-77
2023/03/12 15:31:57;;;;;;;11.02;8.02;;;5.50;99.90;;;;;;4936651;29;20170;-77
2023/03/12 15:34:37;;;;;;;9.95;8.70;;;5.50;99.90;;;;;;4935754;29;20363;-77
2023/03/12 15:37:36;;;;;;;10.20;9.13;;;5.60;99.90;;;;;;4936570;29;20287;-78
2023/03/12 15:40:05;;;;;;;10.38;9.38;;;5.50;99.90;;;;;;4936257;29;20253;-78
2023/03/12 15:42:40;;;;;;;10.27;9.38;;;5.50;99.90;;;;;;4937796;29;20213;-78
2023/03/12 15:45:18;;;;;;;9.52;8.63;;;5.50;99.90;;;;;;4939038;29;20182;-78
2023/03/12 15:47:45;;;;;;;10.68;9.57;;;5.50;99.90;;;;;;4939664;29;20270;-78